createdAt,value
2022-08-11T00:01:07.606Z,43.17
2022-08-11T00:03:43.440Z,43.20
2022-08-11T00:06:14.056Z,43.35
2022-08-11T00:08:42.409Z,43.19
2022-08-11T00:11:10.181Z,43.45
2022-08-11T00:13:46.904Z,43.27
2022-08-11T00:16:20.719Z,43.49
2022-08-11T00:18:53.558Z,43.37
2022-08-11T00:21:32.503Z,43.15
2022-08-11T00:24:09.064Z,43.52
2022-08-11T00:26:36.821Z,43.14
2022-08-11T00:29:12.965Z,43.38
2022-08-11T00:31:46.137Z,43.42
2022-08-11T00:34:12.548Z,43.61
2022-08-11T00:36:50.803Z,43.33
2022-08-11T00:39:20.487Z,43.26
2022-08-11T00:42:10.807Z,43.22
2022-08-11T00:45:17.688Z,43.09
2022-08-11T00:48:04.090Z,43.33
2022-08-11T00:50:42.733Z,43.46
2022-08-11T00:53:31.509Z,43.52
2022-08-11T00:56:23.609Z,43.31
2022-08-11T00:59:34.365Z,43.44
2022-08-11T01:01:57.658Z,43.40
2022-08-11T01:04:46.230Z,43.54
2022-08-11T01:08:03.008Z,43.37
2022-08-11T01:10:41.973Z,43.35
2022-08-11T01:13:15.599Z,43.37
2022-08-11T01:16:11.684Z,43.37
2022-08-11T01:18:53.578Z,43.20
2022-08-11T01:21:58.030Z,43.21
2022-08-11T01:24:45.508Z,43.54
2022-08-11T01:27:33.499Z,43.24
2022-08-11T01:30:40.749Z,43.40
2022-08-11T01:33:38.545Z,43.79
2022-08-11T01:36:35.698Z,43.53
2022-08-11T01:39:26.992Z,43.77
2022-08-11T01:42:41.708Z,43.83
2022-08-11T01:45:24.049Z,43.59
2022-08-11T01:48:03.084Z,43.66
2022-08-11T01:50:55.255Z,43.60
2022-08-11T01:53:40.153Z,43.61
2022-08-11T01:56:37.443Z,43.57
2022-08-11T01:59:10.189Z,43.60
2022-08-11T02:01:37.326Z,43.87
2022-08-11T02:04:33.797Z,43.85
2022-08-11T02:07:21.744Z,43.82
2022-08-11T02:10:25.746Z,43.58
2022-08-11T02:13:42.448Z,43.40
2022-08-11T02:16:27.186Z,43.53
2022-08-11T02:19:35.440Z,43.54
2022-08-11T02:22:25.220Z,43.68
2022-08-11T02:25:02.270Z,43.67
2022-08-11T02:28:03.585Z,43.36
2022-08-11T02:30:35.207Z,43.55
2022-08-11T02:33:23.192Z,43.72
2022-08-11T02:36:06.687Z,43.48
2022-08-11T02:38:33.035Z,43.57
2022-08-11T02:41:37.897Z,43.59
2022-08-11T02:44:26.846Z,43.74
2022-08-11T02:47:24.993Z,43.40
2022-08-11T02:50:07.501Z,43.81
2022-08-11T02:52:45.469Z,43.42
2022-08-11T02:55:57.597Z,43.77
2022-08-11T02:58:30.633Z,43.58
2022-08-11T03:01:06.686Z,43.41
2022-08-11T03:04:11.166Z,43.41
2022-08-11T03:06:46.723Z,43.50
2022-08-11T03:09:36.024Z,43.41
2022-08-11T03:12:28.281Z,43.72
2022-08-11T03:15:18.352Z,43.75
2022-08-11T03:18:12.177Z,43.48
2022-08-11T03:21:09.404Z,43.86
2022-08-11T03:24:03.802Z,43.75
2022-08-11T03:26:43.404Z,43.75
2022-08-11T03:29:25.158Z,44.05
2022-08-11T03:32:14.888Z,43.71
2022-08-11T03:34:44.187Z,44.05
2022-08-11T03:37:51.806Z,43.58
2022-08-11T03:40:38.267Z,43.84
2022-08-11T03:43:11.372Z,43.74
2022-08-11T03:45:56.393Z,43.60
2022-08-11T03:48:50.017Z,43.81
2022-08-11T03:51:30.604Z,43.79
2022-08-11T03:54:20.414Z,43.79
2022-08-11T03:56:52.965Z,43.84
2022-08-11T03:59:59.660Z,43.92
2022-08-11T04:02:53.448Z,43.68
2022-08-11T04:05:31.760Z,43.96
2022-08-11T04:08:04.128Z,43.73
2022-08-11T04:10:59.688Z,43.95
2022-08-11T04:14:29.562Z,43.81
2022-08-11T04:17:35.650Z,43.84
2022-08-11T04:20:20.947Z,43.94
2022-08-11T04:22:55.209Z,43.90
2022-08-11T04:25:31.013Z,43.71
2022-08-11T04:28:00.546Z,43.66
2022-08-11T04:30:52.877Z,43.92
2022-08-11T04:33:41.797Z,43.67
2022-08-11T04:36:09.679Z,43.67
2022-08-11T04:39:05.870Z,43.83
2022-08-11T04:42:12.557Z,43.72
2022-08-11T04:44:42.198Z,43.78
2022-08-11T04:47:11.615Z,43.72
2022-08-11T04:50:02.883Z,44.08
2022-08-11T04:53:01.683Z,44.05
2022-08-11T04:56:05.817Z,43.88
2022-08-11T04:59:06.254Z,43.70
2022-08-11T05:01:43.319Z,43.71
2022-08-11T05:04:32.451Z,43.86
2022-08-11T05:07:34.458Z,43.95
2022-08-11T05:10:30.177Z,43.86
2022-08-11T05:13:21.440Z,44.00
2022-08-11T05:16:22.832Z,43.92
2022-08-11T05:19:10.904Z,44.04
2022-08-11T05:21:58.667Z,44.36
2022-08-11T05:24:49.398Z,44.34
2022-08-11T05:27:34.988Z,44.55
2022-08-11T05:30:24.014Z,44.93
2022-08-11T05:33:23.523Z,44.84
2022-08-11T05:36:02.294Z,44.93
2022-08-11T05:38:51.458Z,45.24
2022-08-11T05:41:42.193Z,44.79
2022-08-11T05:44:28.826Z,44.98
2022-08-11T05:47:14.081Z,45.01
2022-08-11T05:49:59.629Z,45.10
2022-08-11T05:52:49.283Z,44.93
2022-08-11T05:55:58.367Z,45.14
2022-08-11T05:58:43.238Z,45.03
2022-08-11T06:01:12.427Z,45.28
2022-08-11T06:04:05.528Z,44.89
2022-08-11T06:06:32.401Z,44.68
2022-08-11T06:08:59.365Z,44.63
2022-08-11T06:11:42.926Z,45.24
2022-08-11T06:14:11.694Z,45.42
2022-08-11T06:16:38.448Z,45.54
2022-08-11T06:19:05.994Z,45.19
2022-08-11T06:21:36.251Z,45.20
2022-08-11T06:24:12.356Z,45.37
2022-08-11T06:27:08.754Z,45.39
2022-08-11T06:29:38.275Z,45.54
2022-08-11T06:32:15.579Z,46.15
2022-08-11T06:35:07.851Z,45.81
2022-08-11T06:37:43.526Z,45.71
2022-08-11T06:40:28.044Z,46.10
2022-08-11T06:43:12.218Z,45.80
2022-08-11T06:45:53.658Z,46.08
2022-08-11T06:48:23.094Z,45.57
2022-08-11T06:51:13.703Z,46.07
2022-08-11T06:54:03.548Z,45.82
2022-08-11T06:57:28.394Z,45.79
2022-08-11T07:00:01.445Z,46.02
2022-08-11T07:02:54.052Z,45.55
2022-08-11T07:05:31.319Z,45.67
2022-08-11T07:08:44.497Z,45.66
2022-08-11T07:11:57.692Z,45.98
2022-08-11T07:14:45.687Z,45.83
2022-08-11T07:17:17.432Z,46.11
2022-08-11T07:20:16.143Z,46.31
2022-08-11T07:23:11.756Z,46.23
2022-08-11T07:25:58.843Z,46.40
2022-08-11T07:28:45.464Z,46.33
2022-08-11T07:31:14.997Z,46.44
2022-08-11T07:34:07.268Z,46.39
2022-08-11T07:36:35.190Z,46.40
2022-08-11T07:39:02.613Z,46.61
2022-08-11T07:41:32.803Z,46.49
2022-08-11T07:44:09.162Z,46.49
2022-08-11T07:47:14.392Z,46.48
2022-08-11T07:50:03.148Z,46.47
2022-08-11T07:52:34.106Z,46.22
2022-08-11T07:55:05.864Z,46.53
2022-08-11T07:58:16.395Z,46.66
2022-08-11T08:01:03.890Z,46.50
2022-08-11T08:03:57.015Z,46.27
2022-08-11T08:06:42.541Z,46.38
2022-08-11T08:09:28.323Z,46.28
2022-08-11T08:12:14.575Z,46.27
2022-08-11T08:15:01.134Z,46.32
2022-08-11T08:18:20.400Z,46.41
2022-08-11T08:20:37.519Z,46.20
2022-08-11T08:23:04.957Z,46.55
2022-08-11T08:25:33.960Z,46.44
2022-08-11T08:28:02.766Z,46.33
2022-08-11T08:30:48.136Z,46.25
2022-08-11T08:33:21.380Z,46.18
2022-08-11T08:35:55.890Z,45.93
2022-08-11T08:38:23.231Z,46.32
2022-08-11T08:40:54.760Z,46.17
2022-08-11T08:43:23.917Z,46.11
2022-08-11T08:45:55.451Z,45.96
2022-08-11T08:48:24.039Z,46.13
2022-08-11T08:51:12.702Z,46.01
2022-08-11T08:53:52.238Z,45.98
2022-08-11T08:56:28.167Z,45.87
2022-08-11T08:58:56.483Z,45.61
2022-08-11T09:01:25.363Z,45.82
2022-08-11T09:04:04.650Z,45.77
2022-08-11T09:06:50.034Z,45.72
2022-08-11T09:09:20.732Z,45.74
2022-08-11T09:11:51.332Z,45.38
2022-08-11T09:14:19.405Z,45.37
2022-08-11T09:16:47.091Z,45.51
2022-08-11T09:19:17.523Z,45.35
2022-08-11T09:22:07.475Z,45.26
2022-08-11T09:24:54.610Z,45.17
2022-08-11T09:27:22.456Z,44.89
2022-08-11T09:29:49.415Z,44.95
2022-08-11T09:32:20.148Z,45.11
2022-08-11T09:34:47.188Z,44.72
2022-08-11T09:37:54.687Z,44.71
2022-08-11T09:40:32.379Z,44.68
2022-08-11T09:43:20.286Z,44.81
2022-08-11T09:45:51.579Z,44.93
2022-08-11T09:48:23.765Z,44.96
2022-08-11T09:50:52.432Z,44.93
2022-08-11T09:53:36.855Z,44.97
2022-08-11T09:56:36.615Z,44.90
2022-08-11T09:59:04.577Z,44.71
2022-08-11T10:01:34.110Z,44.76
2022-08-11T10:04:04.506Z,44.65
2022-08-11T10:06:54.333Z,44.48
2022-08-11T10:09:24.203Z,44.24
2022-08-11T10:11:57.870Z,44.37
2022-08-11T10:14:46.373Z,44.14
2022-08-11T10:17:15.210Z,43.98
2022-08-11T10:19:42.576Z,43.99
2022-08-11T10:22:27.960Z,43.83
2022-08-11T10:25:15.216Z,43.74
2022-08-11T10:28:28.237Z,43.54
2022-08-11T10:30:54.338Z,43.30
2022-08-11T10:33:41.749Z,43.72
2022-08-11T10:36:24.726Z,43.57
2022-08-11T10:38:52.410Z,43.10
2022-08-11T10:41:38.025Z,42.98
2022-08-11T10:44:24.666Z,42.96
2022-08-11T10:47:10.771Z,42.73
2022-08-11T10:49:37.740Z,42.76
2022-08-11T10:52:23.032Z,42.83
2022-08-11T10:55:08.679Z,42.79
2022-08-11T10:58:04.987Z,42.69
2022-08-11T11:00:32.784Z,42.72
2022-08-11T11:03:22.171Z,42.55
2022-08-11T11:06:27.401Z,42.78
2022-08-11T11:08:57.746Z,42.85
2022-08-11T11:11:48.203Z,42.68
2022-08-11T11:14:46.085Z,42.67
2022-08-11T11:17:34.351Z,42.49
2022-08-11T11:20:03.309Z,42.47
2022-08-11T11:22:40.436Z,42.57
2022-08-11T11:25:20.855Z,42.66
2022-08-11T11:28:12.127Z,42.50
2022-08-11T11:30:51.506Z,42.41
2022-08-11T11:34:12.141Z,42.38
2022-08-11T11:36:48.588Z,42.34
2022-08-11T11:39:19.335Z,42.42
2022-08-11T11:41:46.174Z,42.31
2022-08-11T11:44:13.661Z,42.21
2022-08-11T11:46:40.832Z,41.99
2022-08-11T11:49:15.312Z,42.08
2022-08-11T11:51:43.779Z,41.81
2022-08-11T11:54:14.671Z,41.80
2022-08-11T11:56:42.043Z,41.49
2022-08-11T11:59:27.612Z,41.47
2022-08-11T12:01:55.101Z,41.29
2022-08-11T12:04:22.311Z,41.04
2022-08-11T12:06:49.291Z,41.17
2022-08-11T12:09:18.409Z,40.78
2022-08-11T12:12:04.164Z,40.66
2022-08-11T12:14:31.000Z,40.69
2022-08-11T12:16:57.771Z,40.70
2022-08-11T12:19:26.179Z,40.64
2022-08-11T12:22:14.289Z,40.82
2022-08-11T12:24:59.809Z,40.71
2022-08-11T12:27:27.625Z,40.45
2022-08-11T12:30:03.756Z,40.89
2022-08-11T12:32:32.306Z,40.53
2022-08-11T12:34:59.109Z,40.54
2022-08-11T12:37:30.582Z,40.54
2022-08-11T12:40:42.956Z,40.29
2022-08-11T12:43:37.344Z,40.51
2022-08-11T12:46:16.346Z,40.64
2022-08-11T12:49:07.096Z,40.67
2022-08-11T12:52:11.127Z,40.92
2022-08-11T12:54:42.477Z,40.42
2022-08-11T12:58:01.470Z,40.62
2022-08-11T13:00:46.990Z,40.78
2022-08-11T13:03:32.595Z,40.95
2022-08-11T13:06:02.640Z,40.91
2022-08-11T13:08:33.516Z,41.03
2022-08-11T13:11:19.663Z,40.76
2022-08-11T13:13:53.809Z,40.93
2022-08-11T13:16:25.674Z,41.39
2022-08-11T13:18:53.472Z,40.64
2022-08-11T13:21:21.487Z,40.65
2022-08-11T13:24:00.609Z,40.11
2022-08-11T13:26:47.353Z,40.40
2022-08-11T13:29:24.756Z,40.60
2022-08-11T13:31:53.191Z,40.33
2022-08-11T13:34:20.898Z,40.46
2022-08-11T13:36:52.073Z,40.11
2022-08-11T13:39:20.331Z,40.18
2022-08-11T13:41:48.562Z,40.40
2022-08-11T13:44:21.636Z,40.00
2022-08-11T13:46:53.153Z,40.45
2022-08-11T13:49:21.029Z,40.16
2022-08-11T13:51:48.326Z,40.13
2022-08-11T13:54:20.690Z,40.03
2022-08-11T13:56:49.261Z,40.11
2022-08-11T13:59:20.334Z,40.19
2022-08-11T14:02:20.288Z,40.05
2022-08-11T14:04:52.391Z,39.90
2022-08-11T14:07:24.793Z,40.23
2022-08-11T14:09:56.906Z,39.83
2022-08-11T14:12:45.027Z,39.31
2022-08-11T14:15:25.111Z,39.50
2022-08-11T14:18:01.701Z,40.11
2022-08-11T14:20:50.014Z,39.36
2022-08-11T14:23:16.886Z,39.70
2022-08-11T14:26:03.709Z,39.63
2022-08-11T14:28:37.480Z,39.38
2022-08-11T14:31:08.476Z,39.18
2022-08-11T14:33:53.521Z,39.65
2022-08-11T14:36:24.248Z,39.11
2022-08-11T14:38:51.045Z,39.26
2022-08-11T14:41:36.952Z,39.64
2022-08-11T14:44:22.505Z,39.70
2022-08-11T14:47:05.694Z,39.23
2022-08-11T14:50:09.594Z,39.84
2022-08-11T14:52:50.498Z,39.39
2022-08-11T14:55:37.180Z,39.24
2022-08-11T14:58:04.310Z,39.22
2022-08-11T15:00:32.021Z,38.98
2022-08-11T15:03:11.726Z,39.40
2022-08-11T15:05:41.281Z,39.52
2022-08-11T15:08:09.726Z,39.71
2022-08-11T15:10:36.704Z,39.90
2022-08-11T15:13:04.751Z,40.01
2022-08-11T15:15:50.400Z,39.72
2022-08-11T15:18:20.000Z,39.86
2022-08-11T15:21:05.716Z,39.90
2022-08-11T15:23:50.675Z,39.93
2022-08-11T15:26:19.816Z,39.85
2022-08-11T15:29:07.058Z,39.35
2022-08-11T15:31:53.125Z,39.37
2022-08-11T15:34:40.943Z,39.48
2022-08-11T15:37:26.612Z,38.39
2022-08-11T15:40:32.853Z,39.44
2022-08-11T15:43:28.417Z,38.92
2022-08-11T15:46:02.166Z,39.09
2022-08-11T15:48:31.648Z,39.26
2022-08-11T15:51:09.194Z,38.80
2022-08-11T15:53:43.300Z,38.76
2022-08-11T15:56:11.338Z,38.46
2022-08-11T15:59:33.742Z,37.30
2022-08-11T16:02:12.616Z,37.79
2022-08-11T16:04:44.892Z,38.21
2022-08-11T16:07:14.900Z,38.59
2022-08-11T16:09:55.010Z,38.66
2022-08-11T16:12:29.024Z,38.59
2022-08-11T16:15:20.216Z,39.10
2022-08-11T16:17:50.337Z,38.11
2022-08-11T16:20:22.883Z,37.84
2022-08-11T16:23:02.084Z,38.25
2022-08-11T16:27:03.579Z,37.96
2022-08-11T16:28:20.792Z,38.18
2022-08-11T16:30:48.365Z,38.51
2022-08-11T16:33:49.058Z,38.74
2022-08-11T16:36:22.457Z,38.56
2022-08-11T16:38:49.610Z,37.98
2022-08-11T16:41:37.697Z,37.21
2022-08-11T16:44:36.915Z,36.14
2022-08-11T16:47:06.510Z,35.69
2022-08-11T16:49:40.069Z,35.52
2022-08-11T16:52:11.012Z,35.20
2022-08-11T16:54:39.889Z,36.04
2022-08-11T16:57:34.261Z,35.48
2022-08-11T17:00:07.343Z,35.14
2022-08-11T17:02:54.308Z,35.98
2022-08-11T17:05:54.146Z,35.14
2022-08-11T17:08:56.955Z,35.24
2022-08-11T17:11:46.539Z,35.28
2022-08-11T17:14:16.804Z,35.07
2022-08-11T17:16:45.510Z,35.35
2022-08-11T17:19:14.575Z,35.11
2022-08-11T17:22:02.230Z,35.40
2022-08-11T17:24:31.601Z,35.30
2022-08-11T17:26:59.801Z,35.18
2022-08-11T17:29:54.026Z,35.82
2022-08-11T17:32:56.206Z,35.46
2022-08-11T17:35:35.407Z,35.82
2022-08-11T17:38:21.912Z,36.30
2022-08-11T17:41:18.674Z,36.01
2022-08-11T17:44:09.294Z,36.36
2022-08-11T17:46:54.487Z,36.05
2022-08-11T17:49:21.466Z,36.15
2022-08-11T17:52:08.569Z,36.25
2022-08-11T17:54:55.476Z,36.36
2022-08-11T17:57:47.036Z,36.53
2022-08-11T18:00:14.689Z,36.54
2022-08-11T18:03:02.074Z,36.38
2022-08-11T18:05:31.226Z,36.35
2022-08-11T18:08:18.133Z,36.16
2022-08-11T18:11:04.212Z,36.28
2022-08-11T18:13:51.905Z,36.30
2022-08-11T18:16:38.218Z,36.31
2022-08-11T18:19:24.792Z,36.66
2022-08-11T18:22:14.833Z,36.80
2022-08-11T18:25:07.324Z,36.82
2022-08-11T18:27:53.531Z,36.82
2022-08-11T18:30:38.702Z,36.76
2022-08-11T18:33:50.433Z,37.01
2022-08-11T18:36:33.060Z,37.07
2022-08-11T18:39:18.858Z,37.06
2022-08-11T18:42:04.867Z,37.02
2022-08-11T18:44:51.473Z,37.17
2022-08-11T18:47:39.153Z,37.12
2022-08-11T18:50:34.072Z,37.20
2022-08-11T18:53:25.537Z,37.89
2022-08-11T18:56:12.166Z,37.87
2022-08-11T18:59:00.284Z,38.26
2022-08-11T19:01:46.272Z,38.10
2022-08-11T19:04:32.044Z,37.94
2022-08-11T19:07:24.721Z,38.07
2022-08-11T19:10:10.373Z,37.97
2022-08-11T19:12:59.987Z,38.05
2022-08-11T19:15:45.620Z,38.06
2022-08-11T19:18:40.402Z,38.08
2022-08-11T19:21:26.630Z,37.95
2022-08-11T19:24:15.158Z,38.09
2022-08-11T19:27:00.783Z,38.25
2022-08-11T19:30:06.943Z,38.30
2022-08-11T19:32:52.275Z,38.42
2022-08-11T19:35:37.845Z,38.29
2022-08-11T19:38:22.940Z,38.47
2022-08-11T19:41:09.065Z,38.33
2022-08-11T19:43:55.741Z,38.41
2022-08-11T19:46:41.827Z,38.63
2022-08-11T19:49:28.423Z,38.17
2022-08-11T19:52:15.156Z,38.60
2022-08-11T19:55:00.852Z,38.49
2022-08-11T19:57:46.455Z,39.01
2022-08-11T20:00:35.186Z,39.07
2022-08-11T20:03:23.012Z,39.21
2022-08-11T20:06:08.549Z,39.20
2022-08-11T20:08:58.654Z,38.96
2022-08-11T20:11:45.351Z,39.07
2022-08-11T20:14:31.399Z,39.12
2022-08-11T20:17:17.627Z,39.25
2022-08-11T20:20:02.816Z,39.39
2022-08-11T20:22:49.461Z,39.20
2022-08-11T20:25:35.927Z,39.50
2022-08-11T20:28:23.153Z,39.49
2022-08-11T20:31:08.681Z,39.51
2022-08-11T20:33:54.739Z,39.71
2022-08-11T20:36:39.894Z,39.76
2022-08-11T20:39:25.537Z,39.63
2022-08-11T20:42:11.857Z,40.12
2022-08-11T20:44:58.017Z,40.02
2022-08-11T20:47:59.821Z,39.92
2022-08-11T20:50:46.554Z,39.95
2022-08-11T20:53:35.862Z,40.21
2022-08-11T20:56:28.524Z,39.99
2022-08-11T20:59:21.879Z,40.44
2022-08-11T21:02:09.761Z,40.42
2022-08-11T21:04:57.066Z,40.73
2022-08-11T21:07:44.744Z,40.21
2022-08-11T21:10:44.678Z,40.36
2022-08-11T21:13:32.432Z,40.39
2022-08-11T21:16:25.926Z,40.18
2022-08-11T21:19:16.093Z,40.36
2022-08-11T21:22:03.607Z,40.28
2022-08-11T21:24:50.893Z,40.40
2022-08-11T21:27:37.507Z,40.29
2022-08-11T21:30:23.265Z,40.48
2022-08-11T21:33:09.306Z,40.31
2022-08-11T21:35:54.486Z,40.30
2022-08-11T21:38:39.557Z,40.19
2022-08-11T21:41:25.644Z,40.32
2022-08-11T21:44:10.742Z,40.23
2022-08-11T21:46:57.224Z,40.31
2022-08-11T21:49:43.829Z,40.39
2022-08-11T21:52:29.148Z,40.34
2022-08-11T21:55:14.703Z,40.40
2022-08-11T21:58:00.112Z,40.55
2022-08-11T22:00:45.161Z,40.46
2022-08-11T22:03:30.395Z,40.64
2022-08-11T22:06:21.764Z,40.40
2022-08-11T22:09:06.854Z,40.35
2022-08-11T22:12:33.544Z,40.48
2022-08-11T22:14:57.720Z,40.71
2022-08-11T22:17:42.906Z,40.86
2022-08-11T22:20:30.417Z,40.81
2022-08-11T22:23:17.140Z,40.69
2022-08-11T22:26:07.318Z,40.77
2022-08-11T22:28:56.714Z,40.92
2022-08-11T22:31:42.265Z,40.97
2022-08-11T22:34:27.910Z,41.11
2022-08-11T22:37:27.195Z,41.19
2022-08-11T22:40:13.150Z,41.27
2022-08-11T22:42:58.114Z,41.40
2022-08-11T22:45:43.445Z,41.19
2022-08-11T22:48:29.733Z,41.49
2022-08-11T22:51:16.283Z,41.37
2022-08-11T22:54:01.835Z,41.30
2022-08-11T22:56:49.050Z,41.28
2022-08-11T22:59:38.700Z,41.46
2022-08-11T23:02:25.232Z,41.39
2022-08-11T23:05:10.950Z,41.82
2022-08-11T23:07:56.617Z,41.66
2022-08-11T23:10:42.768Z,41.38
2022-08-11T23:13:28.458Z,41.55
2022-08-11T23:16:14.681Z,41.83
2022-08-11T23:19:00.057Z,41.60
2022-08-11T23:21:46.422Z,41.60
2022-08-11T23:24:31.871Z,41.67
2022-08-11T23:27:18.537Z,41.69
2022-08-11T23:30:03.588Z,41.77
2022-08-11T23:32:49.793Z,41.77
2022-08-11T23:35:40.193Z,41.77
2022-08-11T23:38:37.896Z,41.98
2022-08-11T23:41:22.992Z,41.79
2022-08-11T23:44:08.473Z,42.01
2022-08-11T23:46:54.140Z,41.95
2022-08-11T23:49:39.377Z,41.94
2022-08-11T23:52:24.894Z,42.03
2022-08-11T23:55:10.500Z,42.46
2022-08-11T23:57:55.735Z,42.57
